Time;durP1;ratioP1;P1;durP2;ratioP2;P2;SDS_P1;SDS_P2;PMS_P1;PMS_P2;Temp;Humidity;BMP_temperature;BMP_pressure;BME280_temperature;BME280_humidity;BME280_pressure;Samples;Min_cycle;Max_cycle;Signal;HPM_P1;HPM_P2
2021/10/28 00:13:13;;;;;;;52.33;32.00;;;;;;;;;;2086421;28;20049;-45
2021/10/28 00:14:13;;;;;;;52.38;33.20;;;;;;;;;;2088888;28;20127;-46
2021/10/28 00:15:24;;;;;;;49.05;30.58;;;;;;;;;;2088291;28;20056;-46
2021/10/28 00:16:27;;;;;;;54.35;34.42;;;;;;;;;;2086126;28;20131;-44
2021/10/28 00:17:43;;;;;;;43.92;30.63;;;;;;;;;;2090069;28;20494;-44
2021/10/28 00:18:45;;;;;;;48.65;30.65;;;;;;;;;;2088591;28;20436;-45
2021/10/28 00:19:46;;;;;;;52.47;33.97;;;;;;;;;;2088954;28;20131;-45
2021/10/28 00:20:52;;;;;;;54.85;35.83;;;;;;;;;;2090403;28;20259;-45
2021/10/28 00:21:53;;;;;;;54.00;35.10;;;;;;;;;;2088573;28;20041;-45
2021/10/28 00:22:55;;;;;;;55.22;34.42;;;;;;;;;;2090115;28;20558;-44
2021/10/28 00:24:00;;;;;;;59.72;36.80;;;;;;;;;;2090227;28;20128;-44
2021/10/28 00:25:01;;;;;;;47.28;30.58;;;;;;;;;;2087868;28;20144;-45
2021/10/28 00:26:03;;;;;;;54.60;31.60;;;;;;;;;;2090321;28;20124;-45
2021/10/28 00:27:04;;;;;;;56.22;34.25;;;;;;;;;;2090325;28;20066;-45
2021/10/28 00:28:06;;;;;;;51.35;31.50;;;;;;;;;;2087697;28;20179;-44
2021/10/28 00:29:08;;;;;;;52.72;33.83;;;;;;;;;;2090358;28;20178;-44
2021/10/28 00:30:09;;;;;;;;;;;;;;;;;;2091033;28;20145;-44
2021/10/28 00:31:11;;;;;;;56.55;33.60;;;;;;;;;;2088671;28;20016;-45
2021/10/28 00:32:12;;;;;;;55.00;33.75;;;;;;;;;;2090249;28;20049;-45
2021/10/28 00:33:13;;;;;;;53.08;33.13;;;;;;;;;;2089815;28;20257;-45
2021/10/28 00:34:14;;;;;;;54.20;35.90;;;;;;;;;;2088555;28;20124;-47
2021/10/28 00:35:15;;;;;;;53.25;35.17;;;;;;;;;;2090013;28;20466;-44
2021/10/28 00:36:16;;;;;;;53.23;31.47;;;;;;;;;;2090795;28;20105;-44
2021/10/28 00:37:17;;;;;;;50.17;33.28;;;;;;;;;;2088344;28;20052;-45
2021/10/28 00:38:19;;;;;;;56.88;34.25;;;;;;;;;;2090333;28;20060;-46
2021/10/28 00:39:20;;;;;;;61.42;37.10;;;;;;;;;;2089231;28;20064;-46
2021/10/28 00:40:21;;;;;;;51.40;33.37;;;;;;;;;;2088604;28;20053;-44
2021/10/28 00:41:23;;;;;;;53.55;33.33;;;;;;;;;;2090064;28;20057;-45
2021/10/28 00:42:25;;;;;;;53.85;34.53;;;;;;;;;;2090388;28;20123;-45
2021/10/28 00:43:26;;;;;;;;;;;;;;;;;;2088756;28;20128;-46
2021/10/28 00:44:27;;;;;;;53.33;33.75;;;;;;;;;;2090124;28;19948;-44
2021/10/28 00:45:28;;;;;;;52.75;31.77;;;;;;;;;;2088021;28;20561;-44
2021/10/28 00:46:31;;;;;;;55.63;33.42;;;;;;;;;;2088888;28;20171;-46
2021/10/28 00:47:34;;;;;;;53.67;35.40;;;;;;;;;;2090156;28;20059;-47
2021/10/28 00:48:35;;;;;;;52.78;34.42;;;;;;;;;;2090144;28;20124;-44
2021/10/28 00:49:36;;;;;;;57.35;36.63;;;;;;;;;;2089272;28;20132;-45
2021/10/28 00:50:37;;;;;;;51.40;34.57;;;;;;;;;;2090152;28;20495;-44
2021/10/28 00:51:39;;;;;;;54.42;33.95;;;;;;;;;;2087858;28;20052;-45
2021/10/28 00:52:40;;;;;;;50.53;32.40;;;;;;;;;;2081902;28;20182;-45
2021/10/28 00:53:42;;;;;;;58.97;37.00;;;;;;;;;;2081883;28;20497;-45
2021/10/28 00:54:44;;;;;;;;;;;;;;;;;;2087624;28;20123;-44
2021/10/28 00:55:45;;;;;;;52.03;32.63;;;;;;;;;;2090023;28;20090;-45
2021/10/28 00:56:46;;;;;;;58.17;36.53;;;;;;;;;;2089639;28;20182;-44
2021/10/28 00:57:47;;;;;;;53.72;33.78;;;;;;;;;;2086831;28;20458;-44
2021/10/28 00:58:48;;;;;;;61.67;37.73;;;;;;;;;;2090253;28;20095;-43
2021/10/28 00:59:49;;;;;;;55.75;33.30;;;;;;;;;;2089552;28;20053;-45
2021/10/28 01:00:51;;;;;;;45.10;26.90;;;;;;;;;;2086996;28;20045;-44
2021/10/28 01:01:52;;;;;;;51.97;35.00;;;;;;;;;;2089901;28;20096;-44
2021/10/28 01:02:53;;;;;;;51.55;34.55;;;;;;;;;;2088078;28;20037;-45
2021/10/28 01:03:54;;;;;;;58.97;36.28;;;;;;;;;;2088193;28;20060;-45
2021/10/28 01:04:56;;;;;;;55.00;33.03;;;;;;;;;;2089889;28;20120;-44
2021/10/28 01:05:57;;;;;;;60.13;37.25;;;;;;;;;;2090831;28;20131;-45
2021/10/28 01:06:58;;;;;;;53.13;34.28;;;;;;;;;;2087443;28;20064;-44
2021/10/28 01:08:00;;;;;;;55.80;37.45;;;;;;;;;;2089967;28;20045;-45
2021/10/28 01:09:03;;;;;;;57.40;35.67;;;;;;;;;;2089106;28;20413;-44
2021/10/28 01:10:04;;;;;;;60.20;39.53;;;;;;;;;;2088627;28;20131;-45
2021/10/28 01:11:06;;;;;;;58.67;34.90;;;;;;;;;;2089962;28;20182;-45
2021/10/28 01:12:08;;;;;;;61.33;37.95;;;;;;;;;;2088246;28;20140;-45
2021/10/28 01:13:08;;;;;;;54.95;37.35;;;;;;;;;;2089621;28;20055;-45
2021/10/28 01:14:10;;;;;;;65.00;37.88;;;;;;;;;;2090046;28;20406;-45
2021/10/28 01:15:11;;;;;;;61.03;38.50;;;;;;;;;;2090042;28;20706;-44
2021/10/28 01:16:12;;;;;;;56.90;36.95;;;;;;;;;;2088587;28;20128;-44
2021/10/28 01:17:13;;;;;;;57.70;36.55;;;;;;;;;;2089970;28;20179;-44
2021/10/28 01:18:16;;;;;;;57.15;37.72;;;;;;;;;;2088175;28;20067;-44
2021/10/28 01:19:20;;;;;;;57.63;38.38;;;;;;;;;;2089167;28;20593;-44
2021/10/28 01:20:22;;;;;;;52.92;35.45;;;;;;;;;;2089854;28;20147;-45
2021/10/28 01:21:23;;;;;;;63.38;40.50;;;;;;;;;;2088836;28;20140;-45
2021/10/28 01:22:24;;;;;;;62.65;40.80;;;;;;;;;;2089873;28;20056;-46
2021/10/28 01:23:25;;;;;;;57.97;35.40;;;;;;;;;;2089896;28;20492;-45
2021/10/28 01:24:26;;;;;;;64.97;39.88;;;;;;;;;;2087476;28;20084;-45
2021/10/28 01:25:27;;;;;;;61.40;38.30;;;;;;;;;;2089906;28;20077;-45
2021/10/28 01:26:28;;;;;;;67.07;42.53;;;;;;;;;;2089690;28;20049;-48
2021/10/28 01:27:29;;;;;;;63.03;38.72;;;;;;;;;;2088345;28;20042;-44
2021/10/28 01:28:31;;;;;;;63.17;35.85;;;;;;;;;;2089631;28;20555;-44
2021/10/28 01:29:32;;;;;;;63.17;38.80;;;;;;;;;;2089384;28;20124;-44
2021/10/28 01:30:33;;;;;;;63.92;41.30;;;;;;;;;;2087905;28;20513;-45
2021/10/28 01:31:35;;;;;;;66.45;41.55;;;;;;;;;;2089740;28;20076;-45
2021/10/28 01:32:36;;;;;;;67.53;42.13;;;;;;;;;;2089249;28;20474;-48
2021/10/28 01:33:39;;;;;;;68.88;43.47;;;;;;;;;;2088165;28;20144;-47
2021/10/28 01:34:43;;;;;;;60.92;42.08;;;;;;;;;;2089815;28;20140;-46
2021/10/28 01:35:45;;;;;;;70.25;43.85;;;;;;;;;;2090255;28;20456;-44
2021/10/28 01:36:46;;;;;;;63.70;42.40;;;;;;;;;;2088257;28;20123;-45
2021/10/28 01:37:47;;;;;;;66.55;37.97;;;;;;;;;;2089910;28;20057;-44
2021/10/28 01:38:49;;;;;;;69.40;42.95;;;;;;;;;;2088242;28;20074;-44
2021/10/28 01:39:50;;;;;;;;;;;;;;;;;;2089823;28;20049;-44
2021/10/28 01:40:55;;;;;;;69.82;39.17;;;;;;;;;;2089769;28;20336;-44
2021/10/28 01:41:56;;;;;;;66.32;40.80;;;;;;;;;;2089671;28;20051;-44
2021/10/28 01:42:57;;;;;;;68.32;45.50;;;;;;;;;;2088439;28;20128;-44
2021/10/28 01:43:58;;;;;;;67.20;40.25;;;;;;;;;;2089955;28;20053;-44
2021/10/28 01:44:59;;;;;;;60.10;38.50;;;;;;;;;;2087581;28;20048;-45
2021/10/28 01:46:00;;;;;;;72.45;44.70;;;;;;;;;;2089618;28;20274;-44
2021/10/28 01:47:01;;;;;;;72.00;46.33;;;;;;;;;;2089634;28;20459;-44
2021/10/28 01:48:04;;;;;;;68.18;42.63;;;;;;;;;;2087404;28;20164;-45
2021/10/28 01:49:05;;;;;;;70.25;45.72;;;;;;;;;;2089807;28;20040;-46
2021/10/28 01:50:07;;;;;;;69.05;45.08;;;;;;;;;;2089509;28;20045;-45
2021/10/28 01:51:09;;;;;;;73.43;42.63;;;;;;;;;;2087239;28;20516;-45
2021/10/28 01:52:10;;;;;;;65.60;43.47;;;;;;;;;;2089659;28;20079;-44
2021/10/28 01:53:12;;;;;;;71.28;41.95;;;;;;;;;;2089150;28;20139;-44
2021/10/28 01:54:13;;;;;;;75.15;48.47;;;;;;;;;;2087636;28;20190;-44
2021/10/28 01:55:14;;;;;;;65.60;42.88;;;;;;;;;;2089752;28;20049;-43
2021/10/28 01:56:16;;;;;;;73.65;46.45;;;;;;;;;;2090296;28;20135;-45
2021/10/28 01:57:18;;;;;;;69.35;41.42;;;;;;;;;;2086750;28;20053;-43
2021/10/28 01:58:22;;;;;;;77.03;43.47;;;;;;;;;;2089789;28;20045;-45
2021/10/28 01:59:23;;;;;;;73.70;47.42;;;;;;;;;;2090239;28;20077;-44
2021/10/28 02:00:24;;;;;;;71.57;44.28;;;;;;;;;;2088202;28;20047;-44
2021/10/28 02:01:25;;;;;;;74.30;45.42;;;;;;;;;;2089693;28;20053;-44
2021/10/28 02:02:27;;;;;;;74.53;44.15;;;;;;;;;;2088928;28;20132;-45
2021/10/28 02:03:28;;;;;;;71.50;46.58;;;;;;;;;;2086686;28;20068;-44
2021/10/28 02:04:29;;;;;;;74.13;46.17;;;;;;;;;;2089757;28;20136;-45
2021/10/28 02:05:30;;;;;;;77.30;47.03;;;;;;;;;;2089823;28;20560;-44
2021/10/28 02:06:32;;;;;;;74.97;47.55;;;;;;;;;;2088206;28;20136;-44
2021/10/28 02:07:34;;;;;;;74.55;45.00;;;;;;;;;;2089569;28;20452;-46
2021/10/28 02:08:35;;;;;;;73.40;46.75;;;;;;;;;;2087407;28;20132;-46
2021/10/28 02:09:36;;;;;;;79.03;48.27;;;;;;;;;;2089415;28;20123;-44
2021/10/28 02:10:38;;;;;;;71.05;42.88;;;;;;;;;;2089658;28;20052;-45
2021/10/28 02:11:40;;;;;;;76.88;49.13;;;;;;;;;;2089590;28;20124;-44
2021/10/28 02:12:41;;;;;;;78.43;51.10;;;;;;;;;;2088687;28;20126;-44
2021/10/28 02:13:42;;;;;;;82.13;47.00;;;;;;;;;;2089657;28;20492;-44
2021/10/28 02:14:43;;;;;;;81.67;52.20;;;;;;;;;;2088468;28;20182;-45
2021/10/28 02:15:44;;;;;;;88.15;54.90;;;;;;;;;;2089625;28;20286;-46
2021/10/28 02:16:45;;;;;;;85.95;51.47;;;;;;;;;;2089471;28;20154;-45
2021/10/28 02:17:46;;;;;;;86.35;53.58;;;;;;;;;;2087263;28;20396;-44
2021/10/28 02:18:47;;;;;;;92.68;57.85;;;;;;;;;;2089638;28;20127;-46
2021/10/28 02:19:48;;;;;;;80.95;51.13;;;;;;;;;;2089549;28;20139;-45
2021/10/28 02:20:49;;;;;;;76.57;48.85;;;;;;;;;;2087152;28;20128;-44
2021/10/28 02:21:51;;;;;;;87.20;55.43;;;;;;;;;;2089554;28;20083;-46
2021/10/28 02:22:52;;;;;;;90.00;55.35;;;;;;;;;;2089447;28;20049;-46
2021/10/28 02:23:53;;;;;;;87.60;50.67;;;;;;;;;;2088376;28;20060;-45
2021/10/28 02:24:54;;;;;;;77.57;50.83;;;;;;;;;;2089495;28;20510;-45
2021/10/28 02:25:55;;;;;;;77.95;48.70;;;;;;;;;;2090168;28;20398;-45
2021/10/28 02:26:57;;;;;;;83.32;53.67;;;;;;;;;;2086722;28;20053;-45
2021/10/28 02:27:58;;;;;;;80.25;49.28;;;;;;;;;;2089487;28;20097;-45
2021/10/28 02:28:59;;;;;;;80.80;50.92;;;;;;;;;;2088851;28;20505;-44
2021/10/28 02:30:01;;;;;;;74.68;48.85;;;;;;;;;;2087709;28;20137;-45
2021/10/28 02:31:02;;;;;;;76.40;43.83;;;;;;;;;;2089590;28;20064;-44
2021/10/28 02:32:04;;;;;;;73.67;45.67;;;;;;;;;;2088427;28;20414;-45
2021/10/28 02:33:04;;;;;;;;;;;;;;;;;;2088513;28;20069;-46
2021/10/28 02:34:06;;;;;;;74.53;47.42;;;;;;;;;;2089480;28;19921;-45
2021/10/28 02:35:07;;;;;;;71.97;43.75;;;;;;;;;;2087496;28;20125;-45
2021/10/28 02:36:08;;;;;;;70.40;45.05;;;;;;;;;;2088982;28;20127;-45
2021/10/28 02:37:10;;;;;;;73.95;49.75;;;;;;;;;;2089358;28;20124;-45
2021/10/28 02:38:11;;;;;;;74.47;48.10;;;;;;;;;;2087594;28;20127;-45
2021/10/28 02:39:12;;;;;;;77.53;47.78;;;;;;;;;;2089148;28;20052;-45
2021/10/28 02:40:14;;;;;;;78.20;50.85;;;;;;;;;;2089558;28;20048;-46
2021/10/28 02:41:14;;;;;;;72.60;45.85;;;;;;;;;;2087008;28;20144;-45
2021/10/28 02:42:16;;;;;;;74.50;45.45;;;;;;;;;;2089431;28;20059;-45
2021/10/28 02:43:17;;;;;;;81.25;50.28;;;;;;;;;;2089497;28;20052;-44
2021/10/28 02:44:18;;;;;;;81.33;49.70;;;;;;;;;;2087145;28;20478;-44
2021/10/28 02:45:19;;;;;;;78.47;47.30;;;;;;;;;;2089584;28;20397;-45
2021/10/28 02:46:20;;;;;;;75.30;50.50;;;;;;;;;;2088795;28;20056;-46
2021/10/28 02:47:21;;;;;;;75.70;46.95;;;;;;;;;;2087318;28;20052;-47
2021/10/28 02:48:23;;;;;;;74.65;49.33;;;;;;;;;;2089329;28;20076;-45
2021/10/28 02:49:25;;;;;;;77.57;49.75;;;;;;;;;;2088905;28;20049;-45
2021/10/28 02:50:26;;;;;;;;;;;;;;;;;;2087145;28;20123;-45
2021/10/28 02:51:26;;;;;;;75.28;46.00;;;;;;;;;;2089477;28;19920;-46
2021/10/28 02:52:29;;;;;;;74.53;45.40;;;;;;;;;;2088620;28;20049;-44
2021/10/28 02:53:30;;;;;;;;;;;;;;;;;;2088081;28;20136;-45
2021/10/28 02:54:32;;;;;;;79.57;49.30;;;;;;;;;;2089298;28;19925;-45
2021/10/28 02:55:32;;;;;;;74.70;45.80;;;;;;;;;;2089974;28;20037;-44
2021/10/28 02:56:34;;;;;;;78.90;50.55;;;;;;;;;;2087840;28;20048;-45
2021/10/28 02:57:41;;;;;;;82.65;46.28;;;;;;;;;;2089360;28;20080;-44
2021/10/28 02:58:42;;;;;;;;;;;;;;;;;;2087813;28;20140;-45
2021/10/28 02:59:43;;;;;;;84.32;47.20;;;;;;;;;;2087851;28;19921;-44
2021/10/28 03:00:44;;;;;;;84.10;50.58;;;;;;;;;;2089350;28;20122;-44
2021/10/28 03:01:46;;;;;;;80.93;48.35;;;;;;;;;;2089358;28;20413;-45
2021/10/28 03:02:47;;;;;;;;;;;;;;;;;;2087011;28;20509;-45
2021/10/28 03:03:48;;;;;;;75.30;45.38;;;;;;;;;;2089347;28;20020;-45
2021/10/28 03:04:49;;;;;;;82.40;46.53;;;;;;;;;;2086949;28;20051;-44
2021/10/28 03:05:50;;;;;;;77.53;48.67;;;;;;;;;;2089302;28;20055;-45
2021/10/28 03:06:51;;;;;;;80.20;48.00;;;;;;;;;;2089316;28;20040;-45
2021/10/28 03:07:54;;;;;;;74.97;49.15;;;;;;;;;;2087110;28;20049;-45
2021/10/28 03:08:55;;;;;;;77.53;49.47;;;;;;;;;;2080929;28;20561;-45
2021/10/28 03:09:56;;;;;;;78.03;48.60;;;;;;;;;;2081033;28;20136;-44
2021/10/28 03:10:57;;;;;;;74.57;48.40;;;;;;;;;;2087399;28;20045;-45
2021/10/28 03:11:59;;;;;;;76.78;45.83;;;;;;;;;;2089264;28;20118;-44
2021/10/28 03:13:00;;;;;;;;;;;;;;;;;;2089432;28;20065;-44
2021/10/28 03:14:01;;;;;;;82.68;44.50;;;;;;;;;;2088373;28;19936;-45
2021/10/28 03:15:03;;;;;;;80.28;49.75;;;;;;;;;;2089169;28;20083;-45
2021/10/28 03:16:13;;;;;;;;;;;;;;;;;;2089321;28;20051;-45
2021/10/28 03:17:26;;;;;;;79.35;47.22;;;;;;;;;;2087815;28;19928;-44
2021/10/28 03:25:37;;;;;;;75.03;45.10;;;;;;;;;;2087315;28;20125;-44
2021/10/28 03:26:38;;;;;;;80.25;49.13;;;;;;;;;;2088626;28;20041;-46
2021/10/28 03:27:39;;;;;;;74.82;45.92;;;;;;;;;;2089128;28;20140;-43
2021/10/28 03:28:40;;;;;;;89.28;50.90;;;;;;;;;;2088310;28;20051;-44
2021/10/28 03:29:41;;;;;;;79.78;47.78;;;;;;;;;;2089257;28;20144;-44
2021/10/28 03:30:42;;;;;;;82.18;51.15;;;;;;;;;;2089102;28;20076;-44
2021/10/28 03:31:43;;;;;;;72.53;46.22;;;;;;;;;;2086802;28;20128;-45
2021/10/28 03:32:45;;;;;;;76.55;46.63;;;;;;;;;;2089211;28;20135;-45
2021/10/28 03:33:48;;;;;;;76.75;50.47;;;;;;;;;;2088713;28;20487;-46
2021/10/28 03:34:50;;;;;;;76.55;48.03;;;;;;;;;;2087960;28;20096;-45
2021/10/28 03:35:52;;;;;;;72.03;48.03;;;;;;;;;;2089037;28;20079;-44
2021/10/28 03:36:59;;;;;;;83.43;50.83;;;;;;;;;;2088484;28;20049;-45
2021/10/28 03:38:06;;;;;;;76.45;44.25;;;;;;;;;;2087309;28;20051;-45
2021/10/28 03:39:16;;;;;;;77.00;48.35;;;;;;;;;;2089127;28;20500;-44
2021/10/28 03:40:38;;;;;;;83.05;49.28;;;;;;;;;;2086477;28;20053;-44
2021/10/28 03:42:09;;;;;;;68.05;43.10;;;;;;;;;;2080855;28;20095;-44
2021/10/28 03:43:43;;;;;;;75.00;46.55;;;;;;;;;;2083423;28;20098;-44
2021/10/28 03:47:43;;;;;;;74.72;47.30;;;;;;;;;;2081087;28;20053;-43
2021/10/28 03:49:16;;;;;;;78.05;48.38;;;;;;;;;;2082923;28;20045;-45
2021/10/28 03:55:04;;;;;;;77.22;46.92;;;;;;;;;;2081751;28;20131;-44
2021/10/28 04:06:06;;;;;;;80.85;48.60;;;;;;;;;;2090500;28;20128;-44
2021/10/28 04:16:58;;;;;;;77.88;49.50;;;;;;;;;;2082015;28;20042;-45
2021/10/28 04:18:19;;;;;;;76.97;47.92;;;;;;;;;;2083834;28;20053;-44
2021/10/28 04:28:55;;;;;;;76.47;49.80;;;;;;;;;;2090290;28;20428;-44
2021/10/28 04:29:56;;;;;;;81.90;49.03;;;;;;;;;;2088174;28;20106;-44
2021/10/28 04:30:57;;;;;;;85.53;46.50;;;;;;;;;;2090178;28;20486;-44
2021/10/28 04:31:58;;;;;;;77.32;50.22;;;;;;;;;;2090204;28;20154;-44
2021/10/28 04:32:59;;;;;;;77.93;50.33;;;;;;;;;;2087925;28;20132;-43
2021/10/28 04:34:01;;;;;;;80.00;49.00;;;;;;;;;;2090055;28;20502;-44
2021/10/28 04:35:02;;;;;;;;;;;;;;;;;;2090549;28;20572;-45
2021/10/28 04:36:04;;;;;;;91.90;53.55;;;;;;;;;;2087826;28;20388;-45
2021/10/28 04:37:08;;;;;;;93.00;56.38;;;;;;;;;;2081854;28;20494;-44
2021/10/28 04:38:09;;;;;;;94.00;57.35;;;;;;;;;;2081943;28;20449;-45
2021/10/28 04:39:10;;;;;;;91.55;55.88;;;;;;;;;;2088668;28;20053;-45
2021/10/28 04:40:12;;;;;;;87.22;54.65;;;;;;;;;;2090279;28;20417;-44
2021/10/28 04:41:13;;;;;;;86.88;51.65;;;;;;;;;;2090046;28;20124;-44
2021/10/28 04:42:14;;;;;;;87.70;53.60;;;;;;;;;;2089089;28;20052;-45
2021/10/28 04:43:15;;;;;;;85.57;51.90;;;;;;;;;;2090200;28;20049;-45
2021/10/28 04:44:16;;;;;;;77.85;50.00;;;;;;;;;;2089715;28;20668;-45
2021/10/28 04:45:17;;;;;;;75.80;47.15;;;;;;;;;;2088195;28;20194;-45
2021/10/28 04:46:19;;;;;;;83.47;46.65;;;;;;;;;;2090287;28;20049;-45
2021/10/28 04:47:20;;;;;;;72.65;49.75;;;;;;;;;;2089437;28;20139;-44
2021/10/28 04:48:22;;;;;;;68.07;46.50;;;;;;;;;;2088461;28;20068;-45
2021/10/28 04:49:22;;;;;;;64.78;42.53;;;;;;;;;;2090132;28;20055;-45
2021/10/28 04:50:24;;;;;;;69.82;45.75;;;;;;;;;;2089260;28;20044;-45
2021/10/28 04:51:24;;;;;;;77.15;49.38;;;;;;;;;;2088616;28;20139;-45
2021/10/28 04:52:26;;;;;;;76.47;47.67;;;;;;;;;;2090151;28;20395;-46
2021/10/28 04:53:28;;;;;;;69.50;48.05;;;;;;;;;;2089164;28;20037;-44
2021/10/28 04:54:29;;;;;;;;;;;;;;;;;;2089030;28;20037;-45
2021/10/28 04:55:29;;;;;;;70.88;44.65;;;;;;;;;;2090210;28;20366;-46
2021/10/28 04:56:31;;;;;;;66.07;44.23;;;;;;;;;;2090345;28;21868;-45
2021/10/28 04:57:32;;;;;;;76.13;49.72;;;;;;;;;;2088712;28;20143;-44
2021/10/28 04:58:33;;;;;;;78.30;44.72;;;;;;;;;;2090018;28;20540;-44
2021/10/28 04:59:34;;;;;;;68.28;45.03;;;;;;;;;;2087977;28;20128;-44
2021/10/28 05:00:39;;;;;;;73.65;48.33;;;;;;;;;;2089840;28;20048;-44
2021/10/28 05:01:40;;;;;;;64.35;44.00;;;;;;;;;;2090231;28;20051;-45
2021/10/28 05:02:41;;;;;;;67.40;45.23;;;;;;;;;;2088767;28;20051;-45
2021/10/28 05:03:42;;;;;;;71.55;46.67;;;;;;;;;;2087709;28;20293;-44
2021/10/28 05:04:43;;;;;;;61.03;38.28;;;;;;;;;;2090179;28;20045;-44
2021/10/28 05:05:44;;;;;;;68.13;45.15;;;;;;;;;;2089216;28;20068;-44
2021/10/28 05:06:45;;;;;;;69.47;44.87;;;;;;;;;;2081700;28;20057;-44
2021/10/28 05:07:46;;;;;;;68.82;43.13;;;;;;;;;;2081742;28;20049;-45
2021/10/28 05:08:47;;;;;;;67.23;45.00;;;;;;;;;;2086760;28;20057;-44
2021/10/28 05:09:48;;;;;;;69.10;42.47;;;;;;;;;;2089932;28;20136;-45
2021/10/28 05:10:49;;;;;;;80.20;45.47;;;;;;;;;;2090140;28;20055;-44
2021/10/28 05:11:50;;;;;;;69.13;46.28;;;;;;;;;;2087623;28;20098;-44
2021/10/28 05:12:51;;;;;;;66.38;42.88;;;;;;;;;;2090085;28;20065;-44
2021/10/28 05:13:52;;;;;;;65.45;44.40;;;;;;;;;;2089548;28;20128;-44
2021/10/28 05:14:53;;;;;;;69.25;45.67;;;;;;;;;;2087941;28;20482;-45
2021/10/28 05:15:54;;;;;;;66.15;41.08;;;;;;;;;;2090110;28;20166;-46
2021/10/28 05:16:57;;;;;;;63.63;43.63;;;;;;;;;;2090581;28;20067;-45
2021/10/28 05:17:58;;;;;;;67.95;43.42;;;;;;;;;;2087541;28;20278;-44
2021/10/28 05:18:59;;;;;;;68.05;44.50;;;;;;;;;;2089936;28;20070;-43
2021/10/28 05:20:00;;;;;;;69.43;44.38;;;;;;;;;;2088396;28;20549;-46
2021/10/28 05:21:01;;;;;;;63.65;43.53;;;;;;;;;;2089388;28;20059;-44
2021/10/28 05:22:02;;;;;;;65.00;43.25;;;;;;;;;;2089899;28;20141;-44
2021/10/28 05:23:03;;;;;;;65.40;39.78;;;;;;;;;;2087633;28;20132;-43
2021/10/28 05:24:04;;;;;;;62.13;41.97;;;;;;;;;;2089816;28;20132;-45
2021/10/28 05:25:06;;;;;;;69.82;43.13;;;;;;;;;;2089979;28;20690;-45
2021/10/28 05:26:07;;;;;;;68.22;42.28;;;;;;;;;;2090219;28;20124;-47
2021/10/28 05:27:09;;;;;;;63.28;43.15;;;;;;;;;;2088801;28;20053;-49
2021/10/28 05:28:30;;;;;;;63.25;44.28;;;;;;;;;;2089304;28;20056;-50
2021/10/28 05:29:31;;;;;;;60.30;42.72;;;;;;;;;;2087881;28;20045;-49
2021/10/28 05:30:32;;;;;;;55.35;39.90;;;;;;;;;;2089771;28;20060;-49
2021/10/28 05:31:33;;;;;;;66.95;43.83;;;;;;;;;;2089202;28;20345;-48
2021/10/28 05:32:34;;;;;;;55.92;40.75;;;;;;;;;;2087911;28;20078;-48
2021/10/28 05:33:35;;;;;;;58.05;38.72;;;;;;;;;;2089958;28;20136;-51
2021/10/28 05:34:37;;;;;;;58.13;40.30;;;;;;;;;;2089319;28;20048;-48
2021/10/28 05:35:38;;;;;;;61.72;42.15;;;;;;;;;;2087403;28;20132;-48
2021/10/28 05:36:39;;;;;;;58.45;38.63;;;;;;;;;;2089797;28;20132;-49
2021/10/28 05:37:40;;;;;;;64.32;41.15;;;;;;;;;;2088694;28;20526;-50
2021/10/28 05:38:41;;;;;;;67.83;39.37;;;;;;;;;;2088409;28;20265;-49
2021/10/28 05:39:42;;;;;;;63.40;44.70;;;;;;;;;;2089877;28;20056;-51
2021/10/28 05:40:58;;;;;;;63.90;40.65;;;;;;;;;;2087523;28;20116;-51
2021/10/28 05:41:58;;;;;;;62.88;42.10;;;;;;;;;;2089601;28;20041;-50
2021/10/28 05:43:01;;;;;;;65.77;42.13;;;;;;;;;;2089871;28;20457;-48
2021/10/28 05:44:02;;;;;;;64.22;42.13;;;;;;;;;;2087567;28;20048;-51
2021/10/28 05:45:04;;;;;;;65.82;43.25;;;;;;;;;;2081536;28;20054;-51
2021/10/28 05:46:04;;;;;;;62.58;42.67;;;;;;;;;;2081463;28;20116;-50
2021/10/28 05:47:06;;;;;;;66.60;43.42;;;;;;;;;;2088109;28;20383;-45
2021/10/28 05:48:06;;;;;;;62.47;41.42;;;;;;;;;;2089777;28;20120;-44
2021/10/28 05:49:08;;;;;;;63.90;41.83;;;;;;;;;;2090078;28;20056;-48
2021/10/28 05:50:12;;;;;;;75.35;41.17;;;;;;;;;;2088809;28;20053;-48
2021/10/28 05:51:14;;;;;;;69.68;43.22;;;;;;;;;;2089768;28;20136;-49
2021/10/28 05:52:16;;;;;;;65.18;42.95;;;;;;;;;;2089116;28;20163;-48
2021/10/28 05:53:18;;;;;;;60.05;42.70;;;;;;;;;;2087962;28;20090;-50
2021/10/28 05:54:19;;;;;;;67.30;42.42;;;;;;;;;;2089741;28;20049;-50
2021/10/28 05:55:21;;;;;;;62.65;42.28;;;;;;;;;;2088990;28;20517;-50
2021/10/28 05:56:22;;;;;;;58.10;38.78;;;;;;;;;;2088016;28;20057;-51
2021/10/28 05:57:23;;;;;;;67.05;41.17;;;;;;;;;;2089810;28;20140;-49
2021/10/28 05:58:25;;;;;;;59.72;40.10;;;;;;;;;;2088842;28;20048;-48
2021/10/28 05:59:26;;;;;;;60.70;39.95;;;;;;;;;;2087755;28;20124;-48
2021/10/28 06:00:27;;;;;;;69.13;44.27;;;;;;;;;;2089639;28;20059;-49
2021/10/28 06:01:28;;;;;;;60.50;37.58;;;;;;;;;;2088253;28;20048;-47
2021/10/28 06:02:30;;;;;;;59.92;42.67;;;;;;;;;;2088616;28;20122;-48
2021/10/28 06:03:32;;;;;;;65.20;40.22;;;;;;;;;;2088424;28;20107;-49
2021/10/28 06:04:32;;;;;;;62.65;43.35;;;;;;;;;;2087716;28;20132;-48
2021/10/28 06:05:33;;;;;;;66.68;42.97;;;;;;;;;;2088459;28;20044;-47
2021/10/28 06:06:34;;;;;;;57.78;41.05;;;;;;;;;;2089554;28;20053;-48
2021/10/28 06:07:36;;;;;;;62.17;42.53;;;;;;;;;;2089928;28;20456;-48
2021/10/28 06:08:37;;;;;;;57.10;40.85;;;;;;;;;;2088233;28;20103;-49
2021/10/28 06:09:38;;;;;;;59.47;40.67;;;;;;;;;;2089621;28;20486;-49
2021/10/28 06:10:39;;;;;;;61.63;39.72;;;;;;;;;;2087235;28;20506;-52
2021/10/28 06:11:40;;;;;;;56.65;40.47;;;;;;;;;;2089722;28;20127;-48
2021/10/28 06:12:44;;;;;;;59.33;41.78;;;;;;;;;;2089464;28;20136;-49
2021/10/28 06:13:47;;;;;;;59.50;40.72;;;;;;;;;;2086918;28;20062;-47
2021/10/28 06:14:48;;;;;;;54.53;39.17;;;;;;;;;;2089499;28;20406;-49
2021/10/28 06:15:49;;;;;;;60.83;41.45;;;;;;;;;;2089651;28;20100;-49
2021/10/28 06:16:53;;;;;;;61.67;40.90;;;;;;;;;;2087323;28;20055;-49
2021/10/28 06:17:56;;;;;;;59.88;42.30;;;;;;;;;;2089473;28;20049;-50
2021/10/28 06:18:58;;;;;;;61.63;40.88;;;;;;;;;;2089118;28;20170;-48
2021/10/28 06:19:59;;;;;;;59.60;40.45;;;;;;;;;;2087526;28;20040;-50
2021/10/28 06:21:00;;;;;;;58.45;40.78;;;;;;;;;;2089612;28;20098;-49
2021/10/28 06:22:01;;;;;;;62.08;40.58;;;;;;;;;;2088860;28;20143;-49
2021/10/28 06:23:02;;;;;;;61.35;38.97;;;;;;;;;;2087890;28;20049;-48
2021/10/28 06:24:04;;;;;;;61.50;39.30;;;;;;;;;;2089481;28;20143;-48
2021/10/28 06:25:05;;;;;;;58.03;38.83;;;;;;;;;;2089999;28;20040;-49
2021/10/28 06:26:07;;;;;;;53.90;38.70;;;;;;;;;;2087948;28;20391;-48
2021/10/28 06:27:07;;;;;;;54.65;38.47;;;;;;;;;;2089556;28;20132;-51
2021/10/28 06:28:09;;;;;;;59.35;38.25;;;;;;;;;;2088591;28;20049;-52
2021/10/28 06:29:10;;;;;;;53.42;37.60;;;;;;;;;;2087081;28;20279;-48
2021/10/28 06:30:12;;;;;;;56.10;36.22;;;;;;;;;;2089458;28;20053;-49
2021/10/28 06:31:14;;;;;;;53.35;36.15;;;;;;;;;;2089797;28;20051;-48
2021/10/28 06:32:15;;;;;;;55.33;36.58;;;;;;;;;;2088140;28;20135;-49
2021/10/28 06:33:20;;;;;;;59.17;37.90;;;;;;;;;;2089471;28;20180;-50
2021/10/28 06:34:22;;;;;;;57.92;37.17;;;;;;;;;;2089771;28;20412;-50
2021/10/28 06:35:24;;;;;;;51.00;36.97;;;;;;;;;;2081115;28;20053;-49
2021/10/28 06:36:26;;;;;;;51.88;37.00;;;;;;;;;;2081155;28;20621;-48
2021/10/28 06:37:28;;;;;;;53.90;35.58;;;;;;;;;;2085724;28;20127;-50
2021/10/28 06:38:31;;;;;;;58.08;37.40;;;;;;;;;;2081368;28;20128;-48
2021/10/28 06:39:32;;;;;;;55.47;35.30;;;;;;;;;;2081187;28;20072;-48
2021/10/28 06:40:33;;;;;;;53.60;35.80;;;;;;;;;;2086701;28;20494;-50
2021/10/28 06:41:34;;;;;;;50.70;35.42;;;;;;;;;;2089408;28;20127;-49
2021/10/28 06:42:35;;;;;;;51.38;35.05;;;;;;;;;;2089015;28;20072;-51
2021/10/28 06:43:43;;;;;;;53.78;35.97;;;;;;;;;;2086518;28;20049;-48
2021/10/28 06:44:45;;;;;;;50.88;35.80;;;;;;;;;;2089251;28;20048;-49
2021/10/28 06:45:46;;;;;;;58.08;37.47;;;;;;;;;;2090118;28;20573;-49
2021/10/28 06:46:47;;;;;;;60.30;38.67;;;;;;;;;;2087476;28;20044;-50
2021/10/28 06:47:48;;;;;;;64.07;36.67;;;;;;;;;;2089487;28;20124;-49
2021/10/28 06:48:49;;;;;;;58.63;38.97;;;;;;;;;;2089911;28;20904;-47
2021/10/28 06:49:50;;;;;;;55.65;38.05;;;;;;;;;;2087843;28;20131;-52
2021/10/28 06:50:53;;;;;;;54.70;38.00;;;;;;;;;;2089572;28;20090;-54
2021/10/28 06:51:54;;;;;;;53.30;37.70;;;;;;;;;;2088208;28;20045;-47
2021/10/28 06:52:57;;;;;;;60.38;36.60;;;;;;;;;;2088509;28;20044;-52
2021/10/28 06:54:04;;;;;;;52.10;35.33;;;;;;;;;;2089400;28;20125;-52
2021/10/28 06:55:09;;;;;;;55.22;37.15;;;;;;;;;;2087276;28;20124;-50
2021/10/28 06:56:36;;;;;;;52.33;38.08;;;;;;;;;;2088937;28;20124;-53
2021/10/28 06:57:59;;;;;;;50.63;34.38;;;;;;;;;;2089667;28;20044;-47
2021/10/28 07:02:59;;;;;;;56.90;36.53;;;;;;;;;;2087883;28;20044;-47
2021/10/28 07:03:59;;;;;;;55.20;35.15;;;;;;;;;;2087000;28;20131;-50
2021/10/28 07:05:01;;;;;;;56.17;35.03;;;;;;;;;;2089278;28;20076;-50